Terminal Aerodrome Forecast
Issued by NWS Sioux Falls, SD

Home | Current Version | Previous Version | Graphics & Text | Print | Product List | Glossary Off
Versions: 1 2 3 4 5 6 7 8 9 10 11 12 13 14 15

000
FTUS43 KFSD 202320
TAFHON
TAF
KHON 202320Z 2100/2124 04009KT P6SM FEW100
     FM210400 07004KT P6SM SCT060
     FM210900 07005KT P6SM BKN035
     FM211800 09005KT P6SM SCT035 BKN150
     FM212100 36006KT P6SM BKN040=

USA.gov is the U.S. government's official web portal to all federal, state and local government web resources and services.